Time;durP1;ratioP1;P1;durP2;ratioP2;P2;SDS_P1;SDS_P2;PMS_P1;PMS_P2;Temp;Humidity;BMP_temperature;BMP_pressure;BME280_temperature;BME280_humidity;BME280_pressure;Samples;Min_cycle;Max_cycle;Signal;HPM_P1;HPM_P2
2023/01/24 00:01:05;;;;;;;3.67;1.13;;;30.60;99.90;;;;;;5074626;28;20612;-69
2023/01/24 00:03:32;;;;;;;4.87;1.13;;;30.80;99.90;;;;;;5074759;28;20283;-68
2023/01/24 00:06:00;;;;;;;4.83;1.40;;;30.90;99.90;;;;;;5074240;28;20640;-72
2023/01/24 00:08:27;;;;;;;4.93;0.90;;;30.70;99.90;;;;;;5074470;28;20192;-69
2023/01/24 00:11:06;;;;;;;4.43;1.10;;;30.90;99.90;;;;;;5074333;28;20232;-70
2023/01/24 00:13:34;;;;;;;2.37;0.77;;;30.20;99.90;;;;;;5074153;28;20172;-70
2023/01/24 00:16:15;;;;;;;9.57;1.53;;;30.90;99.90;;;;;;5074739;28;20277;-70
2023/01/24 00:18:43;;;;;;;5.20;1.37;;;29.90;99.90;;;;;;5073092;28;20175;-69
2023/01/24 00:21:16;;;;;;;6.50;1.03;;;29.90;99.90;;;;;;5074092;28;20172;-68
2023/01/24 00:23:45;;;;;;;3.20;0.80;;;30.20;99.90;;;;;;5074255;28;20176;-70
2023/01/24 00:26:14;;;;;;;6.17;1.23;;;30.70;99.90;;;;;;5074561;28;20179;-70
2023/01/24 00:28:41;;;;;;;2.93;1.07;;;31.20;99.90;;;;;;5073804;28;20235;-75
2023/01/24 00:31:09;;;;;;;8.80;1.33;;;31.50;99.90;;;;;;5073384;28;20225;-80
2023/01/24 00:33:36;;;;;;;3.77;1.00;;;30.70;99.90;;;;;;5074134;28;20176;-71
2023/01/24 00:36:05;;;;;;;3.27;1.20;;;31.10;99.90;;;;;;5073617;28;20168;-68
2023/01/24 00:38:33;;;;;;;7.33;1.30;;;31.80;99.90;;;;;;5074107;28;20186;-70
2023/01/24 00:41:01;;;;;;;2.57;1.27;;;32.00;99.90;;;;;;5073936;28;20233;-67
2023/01/24 00:43:29;;;;;;;2.60;1.60;;;32.30;99.90;;;;;;5073620;28;20641;-68
2023/01/24 00:45:57;;;;;;;4.57;1.60;;;31.90;99.90;;;;;;5074018;28;20219;-69
2023/01/24 00:48:25;;;;;;;4.60;1.43;;;30.90;99.90;;;;;;5073625;28;20557;-70
2023/01/24 00:50:52;;;;;;;6.23;1.93;;;31.10;99.90;;;;;;5073249;28;20187;-77
2023/01/24 00:53:20;;;;;;;2.57;1.30;;;30.70;99.90;;;;;;5073780;28;20522;-69
2023/01/24 00:55:48;;;;;;;4.13;1.40;;;30.20;99.90;;;;;;5073727;28;20191;-70
2023/01/24 00:58:16;;;;;;;3.80;1.67;;;29.80;99.90;;;;;;5072810;28;20183;-69
2023/01/24 01:00:43;;;;;;;2.73;1.43;;;29.90;99.90;;;;;;5073661;28;20218;-69
2023/01/24 01:03:14;;;;;;;3.73;1.43;;;30.20;99.90;;;;;;5073586;28;20172;-68
2023/01/24 01:05:42;;;;;;;4.27;1.50;;;30.90;99.90;;;;;;5073245;28;20172;-70
2023/01/24 01:08:10;;;;;;;5.23;1.40;;;30.20;99.90;;;;;;5073527;28;20180;-69
2023/01/24 01:10:39;;;;;;;5.03;1.80;;;30.40;99.90;;;;;;5072683;28;20220;-68
2023/01/24 01:13:06;;;;;;;3.53;1.33;;;31.00;99.90;;;;;;5072440;28;20190;-75
2023/01/24 01:15:34;;;;;;;5.60;1.70;;;31.70;99.90;;;;;;5073180;28;20184;-68
2023/01/24 01:18:02;;;;;;;3.97;1.43;;;32.60;99.90;;;;;;5075189;28;20179;-68
2023/01/24 01:20:29;;;;;;;4.47;1.60;;;32.70;99.90;;;;;;5074287;28;20176;-68
2023/01/24 01:22:57;;;;;;;2.47;1.47;;;32.10;99.90;;;;;;5072690;28;20293;-68
2023/01/24 01:25:24;;;;;;;2.57;1.70;;;31.70;99.90;;;;;;5072775;28;20198;-72
2023/01/24 01:27:51;;;;;;;4.07;1.70;;;31.60;99.90;;;;;;5072380;28;20289;-69
2023/01/24 01:30:19;;;;;;;5.17;1.63;;;32.10;99.90;;;;;;5071420;28;20212;-68
2023/01/24 01:32:47;;;;;;;4.43;1.77;;;32.60;99.90;;;;;;5072802;28;20530;-68
2023/01/24 01:35:14;;;;;;;2.60;1.43;;;32.80;99.90;;;;;;5072353;28;20176;-68
2023/01/24 01:37:41;;;;;;;2.93;1.70;;;33.00;99.90;;;;;;5073013;28;20263;-72
2023/01/24 01:40:10;;;;;;;8.23;1.87;;;33.00;99.90;;;;;;5071729;28;20188;-68
2023/01/24 01:42:51;;;;;;;4.28;1.88;;;33.40;99.90;;;;;;5072744;28;20185;-69
2023/01/24 01:45:47;;;;;;;5.22;1.80;;;33.20;99.90;;;;;;5072846;28;20194;-68
2023/01/24 01:48:33;;;;;;;3.40;1.60;;;34.10;99.90;;;;;;5072228;28;20172;-69
2023/01/24 01:51:09;;;;;;;2.75;1.50;;;33.90;99.90;;;;;;5073311;28;20238;-80
2023/01/24 01:53:46;;;;;;;3.40;1.77;;;33.50;99.90;;;;;;5073412;28;20683;-69
2023/01/24 01:56:40;;;;;;;13.45;2.20;;;33.20;99.90;;;;;;5073256;28;20176;-71
2023/01/24 01:59:14;;;;;;;3.72;1.95;;;33.30;99.90;;;;;;5072763;28;20290;-81
2023/01/24 02:01:44;;;;;;;3.75;1.70;;;33.60;99.90;;;;;;5072967;28;20171;-70
2023/01/24 02:04:22;;;;;;;3.40;1.77;;;34.00;99.90;;;;;;5071480;28;20188;-70
2023/01/24 02:07:21;;;;;;;4.93;1.53;;;34.10;99.90;;;;;;5072546;28;20175;-73
2023/01/24 02:09:51;;;;;;;4.60;1.60;;;33.00;99.90;;;;;;5072126;28;20326;-71
2023/01/24 02:12:27;;;;;;;2.20;1.40;;;31.90;99.90;;;;;;5072087;28;20241;-71
2023/01/24 02:17:42;;;;;;;3.27;1.60;;;31.80;99.90;;;;;;5072089;28;20179;-69
2023/01/24 02:20:37;;;;;;;6.00;1.50;;;32.30;99.90;;;;;;5072417;28;20179;-69
2023/01/24 02:23:38;;;;;;;4.03;1.55;;;32.60;99.90;;;;;;5070887;28;20600;-71
2023/01/24 02:26:16;;;;;;;1.77;1.40;;;32.90;99.90;;;;;;5071988;28;20182;-71
2023/01/24 02:28:50;;;;;;;2.97;1.52;;;32.90;99.90;;;;;;5070561;28;20215;-70
2023/01/24 02:31:17;;;;;;;2.33;1.30;;;33.10;99.90;;;;;;5072122;28;20629;-78
2023/01/24 02:33:45;;;;;;;4.07;1.50;;;33.30;99.90;;;;;;5071658;28;20179;-70
2023/01/24 02:36:36;;;;;;;3.05;1.48;;;33.80;99.90;;;;;;5072571;28;20184;-71
2023/01/24 02:39:06;;;;;;;4.60;1.70;;;34.00;99.90;;;;;;5072580;28;20188;-77
2023/01/24 02:41:57;;;;;;;2.58;1.20;;;34.50;99.90;;;;;;5070726;28;20179;-71
2023/01/24 02:44:53;;;;;;;5.03;1.60;;;34.90;99.90;;;;;;5073291;28;20180;-71
2023/01/24 02:47:20;;;;;;;2.35;1.40;;;35.10;99.90;;;;;;5051748;28;20219;-70
2023/01/24 02:49:48;;;;;;;4.03;1.73;;;34.30;99.90;;;;;;5071886;28;20226;-71
2023/01/24 02:55:00;;;;;;;2.20;1.42;;;33.10;99.90;;;;;;5072130;28;20565;-78
2023/01/24 03:01:32;;;;;;;4.00;1.63;;;32.10;99.90;;;;;;5072365;28;20286;-68
2023/01/24 03:03:59;;;;;;;7.10;2.05;;;32.00;99.90;;;;;;5071662;28;20176;-71
2023/01/24 03:06:27;;;;;;;2.25;1.40;;;32.70;99.90;;;;;;5072001;28;20176;-71
2023/01/24 03:08:54;;;;;;;4.38;1.70;;;33.20;99.90;;;;;;5072091;28;20261;-71
2023/01/24 03:11:22;;;;;;;2.70;1.60;;;32.60;99.90;;;;;;5072081;28;20597;-71
2023/01/24 03:35:54;;;;;;;5.50;1.70;;;32.80;99.90;;;;;;5074812;28;20218;-69
2023/01/24 03:41:10;;;;;;;4.88;1.75;;;33.30;99.90;;;;;;5074716;28;20545;-69
2023/01/24 03:43:37;;;;;;;4.30;2.05;;;33.20;99.90;;;;;;5075161;28;20199;-80
2023/01/24 03:46:05;;;;;;;2.28;1.40;;;32.40;99.90;;;;;;5075239;28;20186;-69
2023/01/24 03:48:36;;;;;;;8.00;1.70;;;31.80;99.90;;;;;;5074613;28;20617;-71
2023/01/24 03:53:49;;;;;;;4.57;1.83;;;31.80;99.90;;;;;;5075071;28;20229;-77
2023/01/24 03:56:17;;;;;;;5.15;1.70;;;31.60;99.90;;;;;;5074778;28;20261;-69
2023/01/24 03:58:44;;;;;;;6.57;1.70;;;31.30;99.90;;;;;;5074779;28;20187;-72
2023/01/24 04:01:12;;;;;;;4.65;1.52;;;31.20;99.90;;;;;;5074352;28;20273;-70
2023/01/24 04:03:39;;;;;;;7.50;2.40;;;31.10;99.90;;;;;;5074505;28;20187;-77
2023/01/24 04:06:07;;;;;;;3.13;1.40;;;31.00;99.90;;;;;;5074655;28;20207;-72
2023/01/24 04:08:34;;;;;;;5.13;2.00;;;31.20;99.90;;;;;;5074468;28;20184;-70
2023/01/24 04:11:02;;;;;;;2.78;1.88;;;31.90;99.90;;;;;;5074221;28;20242;-71
2023/01/24 04:13:29;;;;;;;4.38;1.60;;;32.40;99.90;;;;;;5074405;28;20184;-71
2023/01/24 04:15:57;;;;;;;3.95;1.70;;;32.70;99.90;;;;;;5074901;28;20251;-73
2023/01/24 04:18:24;;;;;;;4.45;1.85;;;32.90;99.90;;;;;;5074081;28;20224;-71
2023/01/24 04:20:51;;;;;;;4.65;1.83;;;33.50;99.90;;;;;;5074327;28;20176;-74
2023/01/24 04:23:19;;;;;;;2.28;1.75;;;33.70;99.90;;;;;;5074371;28;20192;-71
2023/01/24 04:25:56;;;;;;;4.28;1.67;;;33.70;99.90;;;;;;5073948;28;20176;-71
2023/01/24 04:28:24;;;;;;;3.25;1.65;;;33.60;99.90;;;;;;5074224;28;20629;-71
2023/01/24 04:31:02;;;;;;;3.40;1.65;;;33.50;99.90;;;;;;5073829;28;20184;-71
2023/01/24 04:33:29;;;;;;;7.45;1.85;;;33.60;99.90;;;;;;5074162;28;20171;-71
2023/01/24 04:35:58;;;;;;;6.25;1.70;;;33.00;99.90;;;;;;5073963;28;20191;-74
2023/01/24 04:38:26;;;;;;;4.15;1.73;;;32.30;99.90;;;;;;5072252;28;20509;-70
2023/01/24 04:41:00;;;;;;;7.18;2.03;;;31.70;99.90;;;;;;5074102;28;20180;-77
2023/01/24 04:43:28;;;;;;;8.18;2.63;;;31.10;99.90;;;;;;5072803;28;20187;-73
2023/01/24 04:45:58;;;;;;;10.27;2.40;;;31.10;99.90;;;;;;5072639;28;20195;-72
2023/01/24 04:48:26;;;;;;;5.30;2.20;;;31.10;99.90;;;;;;5073692;28;20180;-71
2023/01/24 04:51:01;;;;;;;6.57;2.70;;;31.50;99.90;;;;;;5073858;28;20187;-70
2023/01/24 04:53:29;;;;;;;6.45;2.70;;;31.60;99.90;;;;;;5073352;28;20175;-76
2023/01/24 04:56:01;;;;;;;9.33;2.67;;;31.90;99.90;;;;;;5073758;28;20207;-71
2023/01/24 04:58:29;;;;;;;6.27;2.93;;;32.00;99.90;;;;;;5073680;28;20698;-72
2023/01/24 05:00:56;;;;;;;6.33;2.90;;;32.00;99.90;;;;;;5073095;28;20621;-77
2023/01/24 05:03:24;;;;;;;7.73;3.00;;;31.50;99.90;;;;;;5073288;28;20201;-72
2023/01/24 05:05:52;;;;;;;9.87;3.17;;;31.30;99.90;;;;;;5073353;28;20175;-79
2023/01/24 05:08:20;;;;;;;4.60;2.90;;;31.70;99.90;;;;;;5073042;28;20543;-73
2023/01/24 05:10:48;;;;;;;9.37;4.00;;;31.50;99.90;;;;;;5073411;28;20253;-77
2023/01/24 05:13:16;;;;;;;11.07;3.77;;;31.70;99.90;;;;;;5071865;28;20547;-78
2023/01/24 05:15:51;;;;;;;5.80;3.20;;;31.80;99.90;;;;;;5072802;28;20233;-70
2023/01/24 05:18:19;;;;;;;7.90;3.78;;;32.30;99.90;;;;;;5072965;28;20533;-71
2023/01/24 05:20:46;;;;;;;6.72;3.58;;;32.30;99.90;;;;;;5073136;28;20183;-71
2023/01/24 05:23:14;;;;;;;8.10;3.53;;;32.40;99.90;;;;;;5072314;28;20645;-71
2023/01/24 05:25:41;;;;;;;7.83;3.50;;;32.10;99.90;;;;;;5071565;28;20215;-72
2023/01/24 05:28:08;;;;;;;5.20;3.20;;;32.10;99.90;;;;;;5072760;28;20184;-70
2023/01/24 05:30:36;;;;;;;4.87;3.37;;;32.20;99.90;;;;;;5072057;28;20207;-74
2023/01/24 05:33:03;;;;;;;7.32;3.22;;;32.50;99.90;;;;;;5072884;28;20176;-77
2023/01/24 05:35:31;;;;;;;9.23;3.42;;;32.40;99.90;;;;;;5072835;28;20542;-71
2023/01/24 05:37:58;;;;;;;8.03;3.40;;;32.30;99.90;;;;;;5072331;28;20176;-71
2023/01/24 05:40:26;;;;;;;7.78;4.15;;;32.40;99.90;;;;;;5072597;28;20791;-70
2023/01/24 05:42:53;;;;;;;6.70;3.35;;;32.30;99.90;;;;;;5072569;28;20171;-78
2023/01/24 05:45:20;;;;;;;5.97;3.33;;;32.20;99.90;;;;;;5073048;28;20584;-70
2023/01/24 05:47:48;;;;;;;5.55;3.40;;;32.20;99.90;;;;;;5072484;28;20255;-79
2023/01/24 05:50:15;;;;;;;5.43;3.50;;;32.20;99.90;;;;;;5072553;28;20298;-71
2023/01/24 05:52:43;;;;;;;7.40;3.28;;;32.20;99.90;;;;;;5072018;28;20175;-70
2023/01/24 05:55:10;;;;;;;5.47;3.30;;;32.20;99.90;;;;;;5072449;28;20658;-70
2023/01/24 05:57:38;;;;;;;5.00;3.20;;;31.90;99.90;;;;;;5072091;28;20226;-70
2023/01/24 06:00:06;;;;;;;7.83;3.80;;;31.90;99.90;;;;;;5071862;28;20271;-70
2023/01/24 06:02:34;;;;;;;6.03;3.40;;;31.90;99.90;;;;;;5072191;28;20180;-70
2023/01/24 06:05:01;;;;;;;4.82;3.15;;;31.70;99.90;;;;;;5072193;28;20245;-70
2023/01/24 06:07:28;;;;;;;5.80;3.63;;;31.50;99.90;;;;;;5071649;28;20184;-70
2023/01/24 06:09:56;;;;;;;7.87;3.97;;;31.40;99.90;;;;;;5072055;28;20285;-69
2023/01/24 06:12:23;;;;;;;5.50;3.50;;;31.50;99.90;;;;;;5070952;28;20176;-74
2023/01/24 06:14:50;;;;;;;7.90;3.97;;;31.50;99.90;;;;;;5070437;28;20210;-69
2023/01/24 06:17:18;;;;;;;12.80;4.97;;;31.30;99.90;;;;;;5072147;28;20610;-70
2023/01/24 06:19:45;;;;;;;5.83;3.60;;;31.10;99.90;;;;;;5072200;28;20184;-71
2023/01/24 06:22:44;;;;;;;11.53;4.33;;;31.10;99.90;;;;;;5071616;28;20183;-74
2023/01/24 06:25:20;;;;;;;6.27;4.27;;;30.90;99.90;;;;;;5067893;28;20183;-73
2023/01/24 06:27:49;;;;;;;5.97;3.80;;;31.20;99.90;;;;;;5073198;28;20637;-74
2023/01/24 06:30:18;;;;;;;5.63;3.57;;;31.30;99.90;;;;;;5077433;28;20629;-71
2023/01/24 06:33:06;;;;;;;6.37;3.97;;;31.20;99.90;;;;;;5072069;28;20179;-72
2023/01/24 06:36:07;;;;;;;8.30;4.33;;;30.90;99.90;;;;;;5070589;28;20952;-71
2023/01/24 06:38:35;;;;;;;7.50;3.63;;;30.30;99.90;;;;;;5071357;28;20207;-71
2023/01/24 06:41:03;;;;;;;6.03;4.13;;;29.90;99.90;;;;;;5070606;28;20179;-70
2023/01/24 06:43:30;;;;;;;6.20;4.13;;;30.10;99.90;;;;;;5074913;28;20183;-72
2023/01/24 06:45:58;;;;;;;9.03;3.87;;;30.10;99.90;;;;;;5071547;28;20172;-70
2023/01/24 06:48:25;;;;;;;6.43;4.07;;;30.10;99.90;;;;;;5071758;28;20184;-71
2023/01/24 06:50:53;;;;;;;4.17;3.77;;;30.10;99.90;;;;;;5070494;28;20541;-72
2023/01/24 06:53:21;;;;;;;6.77;3.47;;;30.30;99.90;;;;;;5069815;28;20271;-72
2023/01/24 06:55:48;;;;;;;6.03;3.47;;;30.30;99.90;;;;;;5071605;28;20175;-72
2023/01/24 06:58:16;;;;;;;4.90;3.13;;;30.30;99.90;;;;;;5071664;28;20182;-71
2023/01/24 07:00:43;;;;;;;7.77;3.87;;;30.30;99.90;;;;;;5071154;28;20175;-71
2023/01/24 07:03:11;;;;;;;9.20;3.67;;;29.90;99.90;;;;;;5071502;28;20176;-75
2023/01/24 07:05:39;;;;;;;6.03;3.17;;;29.70;99.90;;;;;;5069840;28;20179;-70
2023/01/24 07:08:07;;;;;;;7.77;3.60;;;29.70;99.90;;;;;;5071187;28;20183;-73
2023/01/24 07:10:35;;;;;;;6.43;3.33;;;29.70;99.90;;;;;;5074419;28;20238;-72
2023/01/24 07:13:02;;;;;;;5.17;3.50;;;29.40;99.90;;;;;;5075724;28;20172;-72
2023/01/24 07:15:30;;;;;;;7.03;3.13;;;29.40;99.90;;;;;;5075151;28;20175;-80
2023/01/24 07:18:04;;;;;;;8.60;3.33;;;29.40;99.90;;;;;;5075554;28;20237;-70
2023/01/24 07:20:31;;;;;;;5.50;2.80;;;29.40;99.90;;;;;;5075457;28;20266;-71
2023/01/24 07:22:59;;;;;;;7.30;2.80;;;29.30;99.90;;;;;;5073281;28;20570;-70
2023/01/24 07:25:28;;;;;;;7.73;3.50;;;29.10;99.90;;;;;;5075310;28;20457;-71
2023/01/24 07:27:55;;;;;;;5.43;3.57;;;29.00;99.90;;;;;;5075305;28;20657;-78
2023/01/24 07:30:23;;;;;;;5.87;3.17;;;28.70;99.90;;;;;;5074797;28;20269;-74
2023/01/24 07:32:50;;;;;;;4.33;3.17;;;28.40;99.90;;;;;;5075276;28;20238;-75
2023/01/24 07:35:17;;;;;;;5.07;3.27;;;28.20;99.90;;;;;;5075067;28;20191;-75
2023/01/24 07:37:45;;;;;;;7.10;3.20;;;28.00;99.90;;;;;;5074541;28;20538;-71
2023/01/24 07:40:12;;;;;;;4.47;3.70;;;27.90;99.90;;;;;;5075026;28;20283;-71
2023/01/24 07:42:40;;;;;;;5.80;3.67;;;27.80;99.90;;;;;;5074908;28;20167;-76
2023/01/24 07:45:07;;;;;;;5.90;3.33;;;27.90;99.90;;;;;;5074503;28;20179;-77
2023/01/24 07:47:35;;;;;;;4.67;3.03;;;27.90;99.90;;;;;;5074739;28;20175;-71
2023/01/24 07:50:02;;;;;;;4.47;3.13;;;27.80;99.90;;;;;;5074742;28;20243;-71
2023/01/24 07:52:30;;;;;;;6.47;3.30;;;27.90;99.90;;;;;;5074380;28;20168;-71
2023/01/24 07:54:57;;;;;;;4.13;2.97;;;28.10;99.90;;;;;;5074785;28;20220;-72
2023/01/24 07:57:24;;;;;;;6.70;3.07;;;28.20;99.90;;;;;;5074583;28;20200;-71
2023/01/24 07:59:52;;;;;;;8.13;3.23;;;27.90;99.90;;;;;;5072737;28;20531;-70
2023/01/24 08:02:19;;;;;;;4.20;3.43;;;27.80;99.90;;;;;;5074438;28;20606;-71
2023/01/24 08:04:47;;;;;;;4.67;2.80;;;27.60;99.90;;;;;;5073320;28;20591;-74
2023/01/24 08:07:17;;;;;;;6.43;3.00;;;27.40;99.90;;;;;;5072620;28;20551;-71
2023/01/24 08:09:48;;;;;;;4.63;3.23;;;27.30;99.90;;;;;;5074041;28;20234;-72
2023/01/24 08:12:16;;;;;;;7.37;3.13;;;26.90;99.90;;;;;;5074444;28;20212;-72
2023/01/24 08:14:43;;;;;;;6.20;3.33;;;26.40;99.90;;;;;;5073905;28;20184;-71
2023/01/24 08:17:11;;;;;;;6.67;4.17;;;26.10;99.90;;;;;;5073030;28;20176;-70
2023/01/24 08:19:39;;;;;;;6.50;4.40;;;25.80;99.90;;;;;;5074142;28;20184;-71
2023/01/24 08:22:07;;;;;;;7.03;3.97;;;25.20;99.90;;;;;;5072110;28;20184;-70
2023/01/24 08:24:34;;;;;;;8.23;3.70;;;25.00;99.90;;;;;;5074018;28;20187;-71
2023/01/24 08:27:05;;;;;;;7.07;4.23;;;24.70;99.90;;;;;;5073954;28;20172;-71
2023/01/24 08:29:33;;;;;;;9.30;4.17;;;24.50;99.90;;;;;;5073482;28;20222;-71
2023/01/24 08:32:00;;;;;;;12.20;5.40;;;24.30;99.90;;;;;;5073892;28;20550;-71
2023/01/24 08:34:28;;;;;;;14.50;6.20;;;24.10;99.90;;;;;;5072673;28;20281;-75
2023/01/24 08:36:55;;;;;;;13.17;5.90;;;23.90;99.90;;;;;;5073380;28;20182;-71
2023/01/24 08:39:22;;;;;;;14.47;5.27;;;23.80;99.90;;;;;;5073826;28;20274;-71
2023/01/24 08:41:50;;;;;;;12.07;4.60;;;23.70;99.90;;;;;;5072287;28;20191;-71
2023/01/24 08:44:17;;;;;;;8.30;4.50;;;23.50;99.90;;;;;;5073381;28;20179;-70
2023/01/24 08:46:44;;;;;;;8.87;4.70;;;23.50;99.90;;;;;;5072011;28;20184;-71
2023/01/24 08:49:12;;;;;;;9.53;3.83;;;23.40;99.90;;;;;;5073596;28;20207;-70
2023/01/24 08:51:40;;;;;;;8.77;3.43;;;23.30;99.90;;;;;;5072982;28;20600;-70
2023/01/24 08:54:07;;;;;;;8.23;3.47;;;23.20;99.90;;;;;;5073423;28;20182;-71
2023/01/24 08:56:35;;;;;;;6.37;2.70;;;23.20;99.90;;;;;;5073521;28;20180;-71
2023/01/24 08:59:03;;;;;;;9.17;2.90;;;23.20;99.90;;;;;;5072902;28;20175;-72
2023/01/24 09:01:31;;;;;;;8.03;3.03;;;23.10;99.90;;;;;;5073426;28;20647;-70
2023/01/24 09:03:59;;;;;;;3.93;2.10;;;23.20;99.90;;;;;;5073220;28;20195;-70
2023/01/24 09:06:27;;;;;;;4.43;2.40;;;23.20;99.90;;;;;;5072820;28;20183;-70
2023/01/24 09:08:55;;;;;;;6.93;2.80;;;23.20;99.90;;;;;;5073049;28;20219;-72
2023/01/24 09:11:23;;;;;;;3.50;2.10;;;23.20;99.90;;;;;;5072994;28;20232;-71
2023/01/24 09:13:50;;;;;;;7.10;2.43;;;23.20;99.90;;;;;;5072619;28;20205;-70
2023/01/24 09:16:17;;;;;;;5.00;2.50;;;23.30;99.90;;;;;;5073072;28;20187;-70
2023/01/24 09:18:45;;;;;;;4.33;2.20;;;23.40;99.90;;;;;;5072993;28;20714;-70
2023/01/24 09:21:12;;;;;;;7.80;2.90;;;23.40;99.90;;;;;;5072571;28;20217;-72
2023/01/24 09:23:40;;;;;;;9.13;2.93;;;23.50;99.90;;;;;;5072966;28;20183;-71
2023/01/24 09:26:07;;;;;;;7.60;2.90;;;23.50;99.90;;;;;;5072986;28;20175;-68
2023/01/24 09:28:34;;;;;;;8.43;2.67;;;23.50;99.90;;;;;;5072381;28;20229;-69
2023/01/24 09:31:02;;;;;;;5.43;2.70;;;23.40;99.90;;;;;;5072892;28;20183;-70
2023/01/24 09:33:30;;;;;;;5.97;3.70;;;23.40;99.90;;;;;;5072120;28;20183;-70
2023/01/24 09:36:00;;;;;;;8.97;4.87;;;23.20;99.90;;;;;;5072326;28;20205;-70
2023/01/24 09:38:30;;;;;;;8.80;3.70;;;23.00;99.90;;;;;;5072773;28;20547;-70
2023/01/24 09:41:11;;;;;;;7.47;3.50;;;22.50;99.90;;;;;;5072714;28;20184;-71
2023/01/24 09:43:55;;;;;;;6.53;3.60;;;22.20;99.90;;;;;;5072260;28;20672;-70
2023/01/24 09:46:40;;;;;;;9.87;4.37;;;22.00;99.90;;;;;;5072674;28;20521;-70
2023/01/24 09:49:08;;;;;;;7.03;3.60;;;21.90;99.90;;;;;;5071975;28;20637;-71
2023/01/24 09:51:41;;;;;;;5.90;3.07;;;21.70;99.90;;;;;;5072632;28;20179;-70
2023/01/24 09:54:35;;;;;;;6.63;2.93;;;21.40;99.90;;;;;;5072340;28;20178;-73
2023/01/24 09:57:14;;;;;;;10.13;3.40;;;21.10;99.90;;;;;;5073474;28;20724;-69
2023/01/24 09:59:48;;;;;;;12.90;3.67;;;20.90;99.90;;;;;;5073746;28;20173;-70
2023/01/24 10:02:19;;;;;;;14.57;4.27;;;20.80;99.90;;;;;;5073444;28;20210;-70
2023/01/24 10:04:48;;;;;;;10.13;3.57;;;20.70;99.90;;;;;;5073430;28;20171;-71
2023/01/24 10:07:21;;;;;;;9.83;3.07;;;20.50;99.90;;;;;;5073358;28;20188;-70
2023/01/24 10:10:11;;;;;;;4.33;2.70;;;20.40;99.90;;;;;;5073440;28;20327;-70
2023/01/24 10:12:51;;;;;;;9.73;4.03;;;20.20;99.90;;;;;;5073218;28;20563;-69
2023/01/24 10:15:18;;;;;;;8.47;3.70;;;20.30;99.90;;;;;;5073512;28;20269;-71
2023/01/24 10:17:48;;;;;;;7.47;3.93;;;20.20;99.90;;;;;;5073203;28;20184;-70
2023/01/24 10:20:38;;;;;;;7.87;3.63;;;20.20;99.90;;;;;;5073745;28;20184;-70
2023/01/24 10:23:20;;;;;;;7.60;3.57;;;20.30;99.90;;;;;;5073405;28;20594;-70
2023/01/24 10:25:53;;;;;;;9.57;3.50;;;20.30;99.90;;;;;;5073384;28;20766;-69
2023/01/24 10:28:35;;;;;;;9.60;3.63;;;20.30;99.90;;;;;;5071899;28;20186;-70
2023/01/24 10:31:16;;;;;;;10.50;4.20;;;20.40;99.90;;;;;;5073129;28;20577;-70
2023/01/24 10:33:49;;;;;;;5.87;3.93;;;20.60;99.90;;;;;;5073360;28;20666;-71
2023/01/24 10:36:53;;;;;;;9.23;4.30;;;20.60;99.90;;;;;;5073174;28;20525;-70
2023/01/24 10:39:21;;;;;;;6.10;3.97;;;20.60;99.90;;;;;;5073086;28;20173;-70
2023/01/24 10:41:48;;;;;;;8.70;4.73;;;20.40;99.90;;;;;;5072782;28;20172;-70
2023/01/24 10:44:21;;;;;;;7.37;4.60;;;20.50;99.90;;;;;;5072323;28;20196;-70
2023/01/24 10:47:22;;;;;;;6.80;4.73;;;20.40;99.90;;;;;;5071631;28;20188;-70
2023/01/24 10:50:04;;;;;;;9.43;5.90;;;20.40;99.90;;;;;;5073117;28;20267;-70
2023/01/24 10:52:33;;;;;;;7.57;5.20;;;20.40;99.90;;;;;;5073157;28;20183;-70
2023/01/24 10:55:05;;;;;;;10.33;5.60;;;20.50;99.90;;;;;;5073070;28;20234;-69
2023/01/24 10:58:24;;;;;;;6.47;4.33;;;20.60;99.90;;;;;;5072946;28;20646;-69
2023/01/24 11:01:04;;;;;;;6.23;4.50;;;20.60;99.90;;;;;;5047760;28;20192;-71
2023/01/24 11:03:36;;;;;;;5.30;3.80;;;20.60;99.90;;;;;;5072806;28;20176;-70
2023/01/24 11:06:04;;;;;;;4.57;3.30;;;20.50;99.90;;;;;;5072920;28;20168;-70
2023/01/24 11:08:36;;;;;;;5.77;2.37;;;20.40;99.90;;;;;;5073196;28;20179;-70
2023/01/24 11:11:22;;;;;;;2.40;2.20;;;20.20;99.90;;;;;;5072799;28;20227;-70
2023/01/24 11:13:59;;;;;;;2.80;1.90;;;20.10;99.90;;;;;;5072924;28;20187;-69
2023/01/24 11:16:41;;;;;;;2.47;1.70;;;20.00;99.90;;;;;;5072747;28;20175;-70
2023/01/24 11:19:27;;;;;;;2.20;1.83;;;20.00;99.90;;;;;;5072870;28;20586;-70
2023/01/24 11:22:00;;;;;;;2.90;2.23;;;20.00;99.90;;;;;;5071355;28;20266;-70
2023/01/24 11:24:29;;;;;;;2.70;2.50;;;20.00;99.90;;;;;;5072631;28;20187;-69
2023/01/24 11:27:15;;;;;;;2.30;2.10;;;20.00;99.90;;;;;;5072793;28;20172;-69
2023/01/24 11:29:43;;;;;;;2.40;2.20;;;20.10;99.90;;;;;;5071315;28;20560;-73
2023/01/24 11:32:57;;;;;;;3.37;2.90;;;20.20;99.90;;;;;;5072663;28;20169;-70
2023/01/24 11:35:36;;;;;;;2.97;2.10;;;20.30;99.90;;;;;;5067445;28;20188;-69
2023/01/24 11:38:18;;;;;;;3.43;2.30;;;20.30;99.90;;;;;;5072592;28;20182;-70
2023/01/24 11:40:59;;;;;;;2.20;1.97;;;20.20;99.90;;;;;;5071858;28;20183;-69
2023/01/24 11:43:55;;;;;;;2.53;2.30;;;20.10;99.90;;;;;;5072134;28;20171;-71
2023/01/24 11:46:33;;;;;;;6.07;2.90;;;20.20;99.90;;;;;;5071947;28;20202;-68
2023/01/24 11:49:21;;;;;;;6.43;3.57;;;20.30;99.90;;;;;;5071898;28;20784;-69
2023/01/24 11:52:18;;;;;;;7.00;3.97;;;20.30;99.90;;;;;;5061265;28;20225;-70
2023/01/24 11:55:32;;;;;;;5.83;4.80;;;20.30;99.90;;;;;;5043610;28;20617;-70
2023/01/24 11:58:24;;;;;;;11.17;5.40;;;20.20;99.90;;;;;;5021434;28;20200;-69
2023/01/24 12:01:18;;;;;;;10.00;4.80;;;20.10;99.90;;;;;;5075708;28;20183;-70
2023/01/24 12:04:12;;;;;;;8.53;4.90;;;20.00;99.90;;;;;;5075315;28;20602;-69
2023/01/24 12:06:54;;;;;;;9.73;5.10;;;19.90;99.90;;;;;;5074158;28;20225;-70
2023/01/24 12:09:35;;;;;;;7.10;4.03;;;19.80;99.90;;;;;;5075171;28;20204;-70
2023/01/24 12:12:20;;;;;;;8.20;3.93;;;19.70;99.90;;;;;;5075523;28;20172;-70
2023/01/24 12:15:01;;;;;;;5.83;4.03;;;19.60;99.90;;;;;;5073779;28;20187;-69
2023/01/24 12:18:02;;;;;;;6.47;4.17;;;19.50;99.90;;;;;;5075475;28;20626;-76
2023/01/24 12:20:58;;;;;;;5.67;4.40;;;19.40;99.90;;;;;;5075825;28;20169;-70
2023/01/24 12:23:35;;;;;;;10.10;4.10;;;19.40;99.90;;;;;;5072744;28;20197;-70
2023/01/24 12:26:28;;;;;;;14.13;3.60;;;19.30;99.90;;;;;;5075640;28;20212;-69
2023/01/24 12:29:17;;;;;;;5.90;3.70;;;19.30;99.90;;;;;;5075855;28;20185;-69
2023/01/24 12:31:47;;;;;;;11.93;4.23;;;19.30;99.90;;;;;;5074008;28;20186;-70
2023/01/24 12:34:35;;;;;;;6.30;3.53;;;19.30;99.90;;;;;;5075767;28;20180;-69
2023/01/24 12:37:41;;;;;;;4.70;3.70;;;19.20;99.90;;;;;;5073906;28;20643;-70
2023/01/24 12:40:15;;;;;;;4.50;3.40;;;19.10;99.90;;;;;;5062299;28;20191;-69
2023/01/24 12:43:05;;;;;;;4.73;3.40;;;19.10;99.90;;;;;;5075439;28;20176;-69
2023/01/24 12:45:40;;;;;;;6.70;3.17;;;19.10;99.90;;;;;;5075613;28;20188;-70
2023/01/24 12:48:20;;;;;;;3.50;2.97;;;19.10;99.90;;;;;;5075232;28;20629;-69
2023/01/24 12:51:14;;;;;;;5.37;3.23;;;19.10;99.90;;;;;;5075182;28;20214;-69
2023/01/24 12:54:02;;;;;;;13.00;3.40;;;19.00;99.90;;;;;;5075233;28;20532;-70
2023/01/24 12:56:45;;;;;;;8.53;3.40;;;19.00;99.90;;;;;;5075114;28;20173;-69
2023/01/24 12:59:17;;;;;;;8.13;3.63;;;19.00;99.90;;;;;;5075571;28;20226;-69
2023/01/24 13:02:22;;;;;;;3.83;2.70;;;19.00;99.90;;;;;;5074954;28;20176;-69
2023/01/24 13:05:29;;;;;;;5.47;3.30;;;18.90;99.90;;;;;;5074600;28;20186;-70
2023/01/24 13:07:59;;;;;;;4.47;3.40;;;18.80;99.90;;;;;;5074098;28;20263;-69
2023/01/24 13:10:44;;;;;;;5.63;3.60;;;18.80;99.90;;;;;;5074235;28;20244;-69
2023/01/24 13:13:31;;;;;;;6.93;3.40;;;18.70;99.90;;;;;;5073389;28;20274;-70
2023/01/24 13:16:04;;;;;;;3.90;3.23;;;18.70;99.90;;;;;;5074664;28;20176;-70
2023/01/24 13:18:54;;;;;;;4.20;3.60;;;18.70;99.90;;;;;;5073323;28;20513;-70
2023/01/24 13:21:58;;;;;;;5.70;3.87;;;18.70;99.90;;;;;;5045858;28;20198;-70
2023/01/24 13:24:35;;;;;;;4.70;3.43;;;18.70;99.90;;;;;;5073066;28;20516;-70
2023/01/24 13:27:17;;;;;;;4.13;3.33;;;18.70;99.90;;;;;;5074442;28;20625;-69
2023/01/24 13:30:02;;;;;;;11.07;3.27;;;18.80;99.90;;;;;;5074647;28;20222;-71
2023/01/24 13:32:38;;;;;;;6.13;3.43;;;18.80;99.90;;;;;;5072985;28;20183;-67
2023/01/24 13:35:16;;;;;;;5.80;3.37;;;18.70;99.90;;;;;;5074138;28;20649;-68
2023/01/24 13:37:54;;;;;;;5.43;3.10;;;18.70;99.90;;;;;;5072675;28;20656;-68
2023/01/24 13:40:34;;;;;;;4.57;3.77;;;18.60;99.90;;;;;;5073924;28;20575;-74
2023/01/24 13:43:25;;;;;;;5.70;3.33;;;18.60;99.90;;;;;;5073901;28;20168;-68
2023/01/24 13:45:52;;;;;;;4.73;3.40;;;18.60;99.90;;;;;;5073817;28;20226;-67
2023/01/24 13:48:56;;;;;;;5.90;3.17;;;18.60;99.90;;;;;;5074076;28;20673;-69
2023/01/24 13:51:32;;;;;;;9.30;3.80;;;18.60;99.90;;;;;;5063811;28;20290;-69
2023/01/24 13:54:01;;;;;;;7.47;3.40;;;18.60;99.90;;;;;;5074201;28;20336;-69
2023/01/24 13:56:29;;;;;;;7.27;3.70;;;18.60;99.90;;;;;;5073561;28;20172;-74